Portada
METAR-TAF:

METAR-TAF

Aeroports :

Guaymas, Mèxic

latitud: 27-58N, longitud: 110-56W, altitud: 27 m

Observació

L'informe es va fer fa 1 hora i 5 minuts, a les 01:40 UTC
Vent calma
Temperatura 20°C
Humitat 49%
Pressió 1014 hPa
Visibilitat: 16.1 km
Cel clar

METAR: MMGM 270140Z 00000KT 10SM SKC 20/09 A2994

Hora: 19:45 (02:45 UTC)

Pronòstic

L'informe es va fer fa 10 hores i 2 minuts, a les 16:43 UTC
Pronòstic vàlid del 26 a les 18 UTC al 27 a les 18 UTC
Vent 15 kt del Oest/Nord-Oest
Visibilitat: 10 km
Cel clar
Evolucionant progressivament
l' 27 a les 01 UTC al 27 a les 02 UTC
Vent kt del Nord
A partir de les 27 a les 1500 UTC
Vent 10 kt del Oest/Nord-Oest
Visibilitat: 10 km
Cel clar

TAF: MMGM 261643Z 2618/2718 30015KT P6SM SKC BECMG 2701/2702 00000KT FM271500 29010KT P6SM SKC

Observacions i pronòstics meteorològics de més de 4000 aeroports (METAR i TAF).

Les estacions disponibles són els punts grocs i vermells al mapa.

Posi el ratolí al punt desitjat per veure el nom de l'estació.

Feu clic per veure les observacions i els pronòstics meteorològics.

Per canviar el mapa: feu clic els botons verds amb una creu de color negre per apropar; al botó verd amb un guió per allunyar la imatge; o en les fletxes verdes per a mapes adjacents.


METAR-TAF: